• Join FlightAware (Why Join?)
  • Login
  • US Flag 
 
07:15PM EST


 

Airport Tracker/Info


-or-


 

Live Flight TrackerFlight Track Log ✈ THY2480 ✈ 25-Aug-2013 ✈ LTBA / IST - LTAF / ADA

Flight Track Log - Related Links

Times and Time Zones

All times are in EDT time to prevent confusion due to time zone crossing. See the THY2480 flight status page for this flight to view local times or setup timezone preferences in your user account.

Time Position Orientation Groundspeed Altitude Reporting Facility
EDT Latitude Longitude Course Direction KTS MPH feet Rate Location/Type
03:32AM 40.5057 29.6553 126° Southeast  Level Estimated
03:33AM 40.4379 29.7735 127° Southeast  Level Estimated
03:34AM 40.3700 29.8914 127° Southeast  Level Estimated
03:35AM 40.3019 30.0091 127° Southeast  Level Estimated
03:36AM 40.2338 30.1266 127° Southeast  Level Estimated
03:37AM 40.1655 30.2439 127° Southeast  Level Estimated
03:38AM 40.0971 30.3609 127° Southeast  Level Estimated
03:39AM 40.0286 30.4777 127° Southeast  Level Estimated
03:40AM 39.9599 30.5942 128° Southeast  Level Estimated
03:41AM 39.8912 30.7105 128° Southeast  Level Estimated
03:42AM 39.8223 30.8266 128° Southeast  Level Estimated
03:43AM 39.7533 30.9425 128° Southeast  Level Estimated
03:44AM 39.6842 31.0581 128° Southeast  Level Estimated
03:45AM 39.6150 31.1735 128° Southeast  Level Estimated
03:46AM 39.5457 31.2886 128° Southeast  Level Estimated
03:47AM 39.4763 31.4035 128° Southeast  Level Estimated
03:48AM 39.4067 31.5182 128° Southeast  Level Estimated
03:49AM 39.3371 31.6327 128° Southeast  Level Estimated
03:50AM 39.2673 31.7469 128° Southeast  Level Estimated
03:51AM 39.1974 31.8609 128° Southeast  Level Estimated
03:52AM 39.1274 31.9747 128° Southeast  Level Estimated
03:53AM 39.0573 32.0883 128° Southeast  Level Estimated
03:54AM 38.9871 32.2016 129° Southeast  Level Estimated
03:55AM 38.9167 32.3147 129° Southeast  Level Estimated
03:56AM 38.8463 32.4276 129° Southeast  Level Estimated
03:57AM 38.7757 32.5402 129° Southeast  Level Estimated
03:58AM 38.7051 32.6527 129° Southeast  Level Estimated
03:59AM 38.6343 32.7649 129° Southeast  Level Estimated
04:00AM 38.5635 32.8769 129° Southeast  Level Estimated
04:01AM 38.4925 32.9887 129° Southeast  Level Estimated
04:02AM 38.4214 33.1002 129° Southeast  Level Estimated
04:03AM 38.3502 33.2115 129° Southeast  Level Estimated
04:04AM 38.2789 33.3227 129° Southeast  Level Estimated
04:05AM 38.2076 33.4336 129° Southeast  Level Estimated
04:06AM 38.1361 33.5442 129° Southeast  Level Estimated
04:07AM 38.0645 33.6547 129° Southeast  Level Estimated
04:08AM 37.9928 33.7649 130° Southeast  Level Estimated
04:09AM 37.9210 33.8750 130° Southeast  Level Estimated
04:10AM 37.8490 33.9848 130° Southeast  Level Estimated
04:11AM 37.7770 34.0944 130° Southeast  Level Estimated
04:12AM 37.7049 34.2038 130° Southeast  Level Estimated
04:13AM 37.6327 34.3129 130° Southeast  Level Estimated
04:14AM 37.5604 34.4219 130° Southeast  Level Estimated
04:15AM 37.4880 34.5306 130° Southeast  Level Estimated
04:16AM 37.4155 34.6392 130° Southeast  Level Estimated
04:17AM 37.3429 34.7475 130° Southeast  Level Estimated
04:18AM 37.2702 34.8556 130° Southeast  Level Estimated
04:19AM 37.1973 34.9635 130° Southeast  Level Estimated
04:20AM 37.1244 35.0712 130° Southeast  Level Estimated
04:21AM 37.0514 35.1787 130° Southeast  Level Estimated
04:22AM 36.9822 35.2804 130° Southeast  Level Estimated
04:23AM 36.9822 35.2804 202° Southwest  Level Estimated
04:24AM 36.9822 35.2804 202° Southwest  Level Estimated
04:25AM 36.9822 35.2804 202° Southwest  Level Estimated
04:26AM 36.9822 35.2804 202° Southwest  Level Estimated
04:27AM 36.9822 35.2804 202° Southwest  Level Estimated
04:28AM 36.9822 35.2804 202° Southwest  Level Estimated
04:29AM 36.9822 35.2804 202° Southwest  Level Estimated
04:30AM 36.9822 35.2804 202° Southwest  Level Estimated
04:31AM 36.9822 35.2804 202° Southwest  Level Estimated
04:32AM 36.9822 35.2804 202° Southwest  Level Estimated
04:33AM 36.9822 35.2804 202° Southwest  Level Estimated
04:34AM 36.9822 35.2804 202° Southwest  Level Estimated
04:35AM 36.9822 35.2804 202° Southwest  Level Estimated
04:36AM 36.9822 35.2804 202° Southwest  Level Estimated
04:37AM 36.9822 35.2804 202° Southwest  Level Estimated
04:38AM 36.9822 35.2804 202° Southwest  Level Estimated